Date,TemperatureHighF,TemperatureAvgF,TemperatureLowF,DewpointHighF,DewpointAvgF,DewpointLowF,HumidityHigh,HumidityAvg,HumidityLow,PressureMaxIn,PressureMinIn,WindSpeedMaxMPH,WindSpeedAvgMPH,GustSpeedMaxMPH,PrecipitationSumIn
2013-1-1,32,24,18,56,33,12,92,46,77,30.02,29.81,21,6,24,0.00
2013-1-2,26,19,9,47,18,2,91,71,70,30.23,29.97,26,7,26,0.00
2013-1-3,30,22,9,35,22,3,91,74,75,30.22,29.99,18,7,21,0.00
2013-1-4,34,32,29,28,25,22,90,76,65,30.00,29.87,28,10,30,0.00
2013-1-5,34,32,26,28,26,21,87,79,68,30.28,29.99,22,8,27,0.00
2013-1-6,38,35,31,33,29,25,92,81,75,30.09,29.88,19,11,20,0.04
2013-1-7,35,29,24,33,25,22,93,86,73,30.39,30.02,22,6,24,0.00
2013-1-8,39,33,28,28,25,22,80,71,55,30.33,30.20,29,9,30,0.00
2013-1-9,47,40,34,37,30,24,78,68,58,30.31,29.96,35,12,35,0.01
2013-1-10,39,35,30,31,29,26,87,77,69,30.56,30.27,23,5,27,0.00
2013-1-11,42,39,33,39,31,24,89,74,55,30.47,29.94,35,15,38,0.11
2013-1-12,51,46,42,47,43,39,93,90,85,30.04,29.99,21,10,24,0.00
2013-1-13,57,52,45,52,48,43,96,88,80,30.02,29.80,25,10,32,0.00
2013-1-14,54,39,30,50,34,23,95,81,68,30.35,29.72,24,8,27,0.02
2013-1-15,32,30,28,24,23,21,82,76,67,30.38,30.19,11,3,12,0.00
2013-1-16,36,32,29,54,29,22,92,80,74,30.19,29.78,22,8,24,0.01
2013-1-17,36,27,19,44,24,14,95,70,68,30.16,29.86,24,6,25,0.00
2013-1-18,31,20,10,38,17,6,92,67,59,30.41,30.11,32,10,37,0.00
2013-1-19,47,41,31,35,27,18,70,57,49,30.12,29.64,30,16,33,0.00
2013-1-20,46,22,39,100,66,29,86,28,52,29.65,29.45,28,-507,34,0.01
2013-1-21,-200,0,200,100,100,100,0,0,100,0.00,40.00,0,-999,0,0.00
2013-1-22,-200,0,200,100,100,100,0,0,100,0.00,40.00,0,-999,0,0.00
2013-1-23,-200,0,200,100,100,100,0,0,100,0.00,40.00,0,-999,0,0.00
2013-1-24,-200,0,200,100,100,100,0,0,100,0.00,40.00,0,-999,0,0.00
2013-1-25,-200,0,200,100,100,100,0,0,100,0.00,40.00,0,-999,0,0.00
2013-1-26,-200,0,200,100,100,100,0,0,100,0.00,40.00,0,-999,0,0.00
2013-1-27,-200,0,200,100,100,100,0,0,100,0.00,40.00,0,-999,0,0.00
2013-1-28,-200,0,200,100,100,100,0,0,100,0.00,40.00,0,-999,0,0.00
2013-1-29,-200,0,200,100,100,100,0,0,100,0.00,40.00,0,-999,0,0.00
2013-1-30,-200,0,200,100,100,100,0,0,100,0.00,40.00,0,-999,0,0.00
2013-1-31,-200,0,200,100,100,100,0,0,100,0.00,40.00,0,-999,0,0.00
2013-2-1,-200,0,200,100,100,100,0,0,100,0.00,0.00,0,-999,0,0.00
2013-2-2,-200,0,200,100,100,100,0,0,100,0.00,0.00,0,-999,0,0.00
2013-2-3,-200,0,200,100,100,100,0,0,100,0.00,40.00,0,-999,0,0.00
2013-2-4,-200,0,200,100,100,100,0,0,100,0.00,40.00,0,-999,0,0.00
2013-2-5,-200,0,200,100,100,100,0,0,100,0.00,40.00,0,-999,0,0.00
2013-2-6,-200,0,200,100,100,100,0,0,100,0.00,40.00,0,-999,0,0.00
2013-2-7,-200,0,200,100,100,100,0,0,100,0.00,40.00,0,-999,0,0.00
2013-2-8,-200,0,200,100,100,100,0,0,100,0.00,40.00,0,-999,0,0.00
2013-2-9,-200,0,200,100,100,100,0,0,100,0.00,40.00,0,-999,0,0.00
2013-2-10,-200,0,200,100,100,100,0,0,100,0.00,40.00,0,-999,0,0.00
2013-2-11,-200,0,200,100,100,100,0,0,100,0.00,40.00,0,-999,0,0.00
2013-2-12,-200,0,200,100,100,100,0,0,100,0.00,40.00,0,-999,0,0.00
2013-2-13,-200,0,200,100,100,100,0,0,100,0.00,40.00,0,-999,0,0.00
2013-2-14,-200,0,200,100,100,100,0,0,100,0.00,40.00,0,-999,0,0.00
2013-2-15,-200,0,200,100,100,100,0,0,100,0.00,40.00,0,-999,0,0.00
2013-2-16,-200,0,200,100,100,100,0,0,100,0.00,40.00,0,-999,0,0.00
2013-2-17,-200,0,200,100,100,100,0,0,100,0.00,40.00,0,-999,0,0.00
2013-2-18,-200,0,200,100,100,100,0,0,100,0.00,40.00,0,-999,0,0.00
2013-2-19,38,18,28,100,62,19,93,45,71,29.73,0.00,25,-461,30,0.04
2013-2-20,28,23,21,46,20,15,91,73,69,30.01,29.73,31,13,31,0.04
2013-2-21,21,17,15,42,24,12,92,56,82,30.41,29.96,27,8,29,0.00
2013-2-22,35,27,14,47,24,11,92,69,62,30.41,30.05,21,2,21,0.00
2013-2-23,38,36,32,36,32,26,95,87,75,30.06,29.85,25,8,27,0.01
2013-2-24,32,31,29,30,26,24,92,85,77,30.02,29.83,18,6,19,0.01
2013-2-25,38,32,26,30,28,23,92,85,69,30.24,30.01,15,3,16,0.02
2013-2-26,42,34,25,31,27,22,92,75,55,30.24,29.86,7,1,9,0.15
2013-2-27,41,36,33,37,33,31,95,91,81,29.89,29.53,15,3,18,0.50
2013-2-28,38,35,33,34,33,31,96,92,84,29.66,29.53,13,1,13,0.01
2013-3-1,33,30,25,49,30,24,96,87,89,29.88,29.66,18,4,20,0.02
2013-3-2,26,24,22,49,27,20,93,72,88,29.89,29.83,16,5,18,0.02
2013-3-3,25,22,20,43,20,17,92,84,81,29.87,29.81,19,6,19,0.00
2013-3-4,28,25,21,46,24,19,95,76,77,30.01,29.85,21,10,22,0.00
2013-3-5,32,27,23,25,23,20,90,85,73,30.09,29.98,13,3,15,0.02
2013-3-6,40,34,25,31,28,22,89,76,63,30.11,29.96,10,0,11,0.02
2013-3-7,39,34,28,64,51,23,90,20,68,30.22,30.10,14,2,14,0.02
2013-3-8,38,31,26,28,26,23,100,82,62,30.38,30.20,7,1,8,0.11
2013-3-9,44,32,24,34,28,22,96,85,54,30.41,30.26,6,1,7,0.11
2013-3-10,55,47,35,31,26,22,78,45,31,30.26,30.02,23,6,28,0.00
2013-3-11,52,49,45,43,32,26,79,53,39,30.04,29.72,36,16,37,0.00
2013-3-12,50,41,35,46,38,30,95,88,77,29.89,29.69,32,7,32,0.13
2013-3-13,36,33,26,31,26,19,93,77,64,29.90,29.80,29,9,30,0.01
2013-3-14,31,25,20,21,17,14,89,72,50,30.01,29.89,31,14,33,0.01
2013-3-15,36,31,25,31,24,17,92,77,64,30.02,29.70,24,7,24,0.00
2013-3-16,31,25,21,24,18,14,79,73,63,29.97,29.81,16,3,20,0.00
2013-3-17,30,24,18,21,17,12,91,73,60,30.34,29.96,14,4,16,0.00
2013-3-18,35,26,17,27,16,6,92,67,38,30.35,29.83,28,8,35,0.00
2013-3-19,39,33,27,34,28,20,93,84,68,29.84,29.65,30,10,32,0.06
2013-3-20,32,28,24,26,21,17,89,77,57,29.82,29.78,25,10,27,0.06
2013-3-21,30,26,22,25,19,15,92,75,56,29.82,29.70,18,9,23,0.00
2013-3-22,31,28,25,27,25,23,99,88,82,29.88,29.70,24,10,27,0.00
2013-3-23,35,32,29,28,26,23,92,81,67,29.97,29.85,22,9,25,0.00
2013-3-24,40,33,28,28,25,22,88,74,52,29.96,29.72,11,2,13,0.00
2013-3-25,42,35,29,29,26,24,83,71,50,29.72,29.55,10,0,12,0.00
2013-3-26,43,35,30,69,36,25,93,66,51,29.90,29.66,15,2,18,0.01
2013-3-27,43,36,32,34,31,27,100,82,63,30.02,29.88,19,6,19,0.05
2013-3-28,42,37,33,36,32,30,95,85,69,30.17,30.00,12,3,13,0.05
2013-3-29,45,38,30,36,32,27,91,81,60,30.18,30.10,0,0,0,0.00
2013-3-30,49,38,29,32,28,25,89,70,40,30.19,30.07,0,0,0,0.00
2013-3-31,49,42,31,40,32,23,95,70,47,30.07,29.63,0,0,0,0.20
2013-4-1,43,36,28,40,31,20,93,81,57,29.91,29.56,0,0,1,0.01
2013-4-2,32,28,25,27,22,18,90,79,68,30.08,29.90,0,0,0,0.01
2013-4-3,35,30,26,25,22,18,89,72,54,30.35,30.06,0,0,0,0.00
2013-4-4,49,37,27,32,24,18,78,61,41,30.35,29.92,0,0,0,0.00
2013-4-5,42,38,32,32,26,19,77,62,42,30.09,29.86,0,0,0,0.00
2013-4-6,44,34,24,30,19,13,83,57,30,30.33,30.09,5,0,7,0.00
2013-4-7,58,48,43,44,31,18,76,52,34,30.11,29.75,0,0,1,0.01
2013-4-8,61,47,39,48,37,34,85,70,43,30.11,29.80,26,1,26,0.01
2013-4-9,61,51,44,49,44,40,95,77,58,30.08,29.78,23,6,26,0.48
2013-4-10,49,46,41,47,44,40,98,96,93,30.03,29.79,18,1,19,0.51
2013-4-11,41,36,34,40,34,30,97,92,80,30.12,29.92,0,0,2,0.09
2013-4-12,46,41,35,43,38,33,95,91,85,29.97,29.59,0,0,0,0.12
2013-4-13,44,41,38,38,36,33,90,82,69,29.93,29.77,0,0,0,0.05
2013-4-14,46,38,33,35,31,28,94,76,53,30.20,29.92,1,0,1,0.07
2013-4-15,62,48,33,46,37,28,87,66,55,30.20,30.08,21,2,24,0.00
2013-4-16,54,50,43,51,46,35,96,85,72,30.21,29.95,32,12,34,0.25
2013-4-17,55,44,34,39,35,32,93,74,45,30.33,30.20,4,0,5,0.25
2013-4-18,62,54,38,54,43,35,88,69,51,30.25,29.81,40,8,45,0.00
2013-4-19,66,54,42,58,49,36,92,82,66,29.81,29.39,37,16,40,0.40
2013-4-20,42,39,32,35,30,24,87,70,56,30.37,29.73,10,0,13,0.40
2013-4-21,45,36,28,30,25,20,92,66,43,30.65,30.37,13,0,13,0.00
2013-4-22,56,44,30,31,26,23,79,50,29,30.62,30.39,23,4,26,0.00
2013-4-23,58,47,37,42,33,23,77,58,38,30.39,30.01,21,9,23,0.00
2013-4-24,62,51,41,52,44,36,90,77,63,30.01,29.63,36,13,40,0.07
2013-4-25,56,44,37,40,32,27,92,66,35,30.30,29.94,28,3,28,0.01
2013-4-26,52,43,36,38,35,31,95,74,46,30.45,30.30,12,1,13,0.08
2013-4-27,64,49,35,41,34,30,87,61,33,30.44,30.24,8,1,8,0.01
2013-4-28,68,53,43,45,39,33,84,61,30,30.25,30.04,13,0,19,0.04
2013-4-29,56,52,50,50,46,40,89,78,63,30.11,30.01,22,0,25,0.02
2013-4-30,63,55,48,52,49,44,91,79,64,30.23,30.08,11,0,13,0.02
2013-5-1,69,57,47,48,40,30,90,55,26,30.37,30.23,8,0,8,0.00
2013-5-2,75,59,48,51,41,33,83,53,27,30.42,30.25,15,4,18,0.00
2013-5-3,69,58,49,49,44,33,89,63,34,30.32,30.21,21,5,21,0.00
2013-5-4,70,58,47,49,42,32,81,54,34,30.29,30.12,16,4,19,0.00
2013-5-5,75,61,50,49,43,32,85,55,22,30.20,30.05,16,5,16,0.00
2013-5-6,74,59,51,49,40,26,83,53,20,30.16,30.00,13,5,15,0.00
2013-5-7,74,63,52,56,51,48,92,68,40,30.11,29.97,14,4,16,0.00
2013-5-8,66,61,55,60,55,49,97,83,63,30.04,29.89,15,3,16,0.07
2013-5-9,66,58,52,57,53,50,95,85,63,29.94,29.86,20,5,20,0.03
2013-5-10,69,58,50,58,53,49,98,84,59,29.95,29.73,24,6,25,0.40
2013-5-11,59,56,50,57,52,48,96,88,76,29.74,29.65,22,7,24,0.64
2013-5-12,52,46,39,48,37,30,92,71,47,29.90,29.67,38,6,38,0.06
2013-5-13,45,41,37,35,33,30,81,72,58,30.11,29.89,30,14,32,0.06
2013-5-14,55,43,33,37,31,24,93,64,35,30.15,29.99,12,3,14,0.00
2013-5-15,73,55,40,56,43,29,83,64,48,29.99,29.52,35,12,36,0.15
2013-5-16,69,59,49,47,44,39,84,59,39,29.95,29.71,31,7,33,0.15
2013-5-17,60,50,40,45,41,37,91,73,42,30.22,29.95,19,3,22,0.00
2013-5-18,67,55,42,50,45,39,92,71,42,30.26,30.15,16,4,16,0.01
2013-5-19,63,59,54,57,54,49,89,83,76,30.18,30.04,22,11,22,0.01
2013-5-20,83,66,57,64,59,54,96,80,47,30.06,29.84,19,5,20,0.00
2013-5-21,79,68,57,69,63,54,97,84,62,29.89,29.71,38,4,41,0.46
2013-5-22,83,69,56,69,63,55,99,82,55,29.80,29.65,23,6,24,0.01
2013-5-23,68,63,51,62,59,50,97,86,74,29.76,29.69,28,7,28,0.45
2013-5-24,51,43,39,50,41,37,100,94,89,30.13,29.76,29,10,29,0.07
2013-5-25,51,45,40,41,39,36,92,78,60,30.14,30.08,30,8,36,0.07
2013-5-26,55,48,40,41,39,35,93,72,47,30.18,30.04,25,8,27,0.00
2013-5-27,66,53,44,43,39,35,79,61,34,30.26,30.13,13,4,14,0.00
2013-5-28,60,54,48,57,48,39,97,81,57,30.17,29.96,19,7,22,0.56
2013-5-29,74,63,54,66,60,53,99,89,67,30.01,29.88,19,0,20,0.56
2013-5-30,83,65,53,68,60,52,100,84,51,30.11,30.01,0,0,0,0.01
2013-5-31,83,54,57,100,68,56,98,70,52,30.08,29.91,13,-255,14,0.13
2013-6-1,81,70,60,66,63,59,97,80,57,29.94,29.77,21,5,22,0.13
2013-6-2,76,68,61,66,62,56,98,80,59,29.82,29.68,24,8,27,0.06
2013-6-3,63,54,48,89,48,43,92,78,61,29.99,29.81,25,7,25,0.06
2013-6-4,61,53,46,46,43,37,91,70,43,30.15,29.99,22,7,25,0.00
2013-6-5,68,57,48,52,45,41,81,66,41,30.21,30.06,9,2,12,0.00
2013-6-6,61,56,54,56,52,47,94,85,67,30.07,29.85,21,6,23,1.80
2013-6-7,63,61,57,60,58,56,97,90,86,29.86,29.75,20,6,20,1.83
2013-6-8,61,57,55,58,56,54,98,96,86,30.07,29.74,20,4,22,0.01
2013-6-9,73,62,54,60,55,52,97,81,53,30.18,30.07,11,2,13,0.01
2013-6-10,67,63,57,62,59,54,94,87,67,30.13,29.72,30,7,34,0.65
2013-6-11,64,62,58,62,59,55,96,92,85,29.78,29.61,29,12,30,0.23
2013-6-12,71,60,54,59,55,53,96,84,59,29.91,29.77,14,4,18,0.23
2013-6-13,64,59,56,58,56,54,96,91,74,29.79,29.51,22,4,22,0.64
2013-6-14,66,59,53,59,56,52,99,90,75,29.94,29.72,22,6,22,0.01
2013-6-15,68,60,53,55,53,46,98,78,47,30.03,29.94,18,4,21,0.02
2013-6-16,68,64,58,63,58,52,97,81,68,29.95,29.68,21,7,21,0.11
2013-6-17,73,65,58,64,60,56,96,86,61,29.91,29.81,28,4,28,0.16
2013-6-18,67,60,53,58,55,50,98,84,56,29.99,29.86,14,3,16,0.18
2013-6-19,62,56,47,51,46,40,95,73,44,30.19,29.99,16,4,18,0.01
2013-6-20,74,60,46,59,50,43,91,71,51,30.25,30.18,14,3,14,0.01
2013-6-21,80,65,52,63,55,48,90,70,42,30.26,30.15,7,2,8,0.01
2013-6-22,80,73,65,67,64,58,83,74,57,30.16,29.99,15,7,19,0.01
2013-6-23,81,73,68,70,67,63,96,84,68,30.06,29.97,29,6,32,1.49
2013-6-24,82,75,69,72,68,65,90,79,61,30.02,29.91,18,5,21,0.02
2013-6-25,78,73,67,70,67,63,92,80,70,29.94,29.76,21,6,23,0.13
2013-6-26,77,71,66,69,67,64,95,85,71,29.80,29.75,19,4,19,0.12
2013-6-27,79,70,64,71,66,63,98,89,68,29.79,29.57,27,2,27,0.32
2013-6-28,69,66,62,66,64,60,98,94,86,29.57,29.44,15,4,15,0.07
2013-6-29,72,66,61,66,63,60,98,91,78,29.67,29.47,19,3,21,0.47
2013-6-30,77,69,61,68,64,60,98,87,69,29.89,29.67,13,3,14,0.01
2013-7-1,70,68,64,69,66,63,98,94,86,29.97,29.87,9,1,10,0.30
2013-7-2,79,71,64,73,68,63,99,93,78,30.07,29.97,12,2,12,0.03
2013-7-3,84,76,69,73,70,68,98,84,64,30.14,30.05,19,5,21,0.01
2013-7-4,82,76,73,74,72,70,92,85,71,30.14,30.06,16,5,19,0.01
2013-7-5,83,76,71,74,72,69,96,85,70,30.11,30.01,29,5,32,0.89
2013-7-6,84,75,71,71,68,64,97,81,54,30.12,30.00,14,3,14,0.93
2013-7-7,82,76,70,74,71,68,96,86,67,30.03,29.89,14,3,14,0.02
2013-7-8,80,74,69,72,69,66,95,84,67,30.03,29.94,15,5,15,0.04
2013-7-9,82,75,71,74,70,68,93,84,65,30.02,29.90,20,5,21,0.06
2013-7-10,83,76,73,75,71,66,92,86,73,29.90,29.70,22,10,22,0.14
2013-7-11,74,69,64,67,63,60,94,80,69,29.99,29.77,20,8,23,0.14
2013-7-12,75,68,62,65,62,58,97,82,58,30.15,29.99,14,2,14,0.01
2013-7-13,78,71,64,71,66,61,95,86,74,30.24,30.13,13,3,14,0.01
2013-7-14,87,77,69,75,71,66,95,81,62,30.29,30.20,11,2,12,0.01
2013-7-15,84,77,70,74,71,66,96,83,62,30.26,30.19,14,3,15,0.01
2013-7-16,84,76,68,73,69,65,93,80,62,30.25,30.17,13,3,14,0.02
2013-7-17,87,77,69,76,72,66,95,85,63,30.21,30.04,16,2,23,0.06
2013-7-18,85,50,74,100,83,68,96,57,70,30.05,30.00,38,-351,49,0.41
2013-7-19,-200,0,200,100,100,100,0,0,100,0.00,0.00,0,-999,0,0.00
2013-7-20,-200,0,200,100,100,100,0,0,100,0.00,0.00,0,-999,0,0.00
2013-7-21,75,38,64,100,80,58,89,38,61,29.97,0.00,19,-470,19,0.01
2013-7-22,79,71,62,71,65,59,94,84,74,29.98,29.76,15,3,16,0.01
2013-7-23,80,73,66,70,67,65,97,84,64,29.77,29.58,18,4,18,0.07
2013-7-24,73,62,52,68,56,50,94,83,72,30.03,29.62,28,10,28,0.04
2013-7-25,72,61,51,58,52,49,96,75,47,30.12,30.03,16,3,18,0.01
2013-7-26,74,64,54,63,57,52,96,79,56,30.09,30.00,13,3,13,0.03
2013-7-27,78,70,59,70,63,57,95,78,57,30.01,29.85,24,8,26,0.31
2013-7-28,75,68,60,68,64,59,95,87,69,29.97,29.82,34,7,39,0.18
2013-7-29,68,64,60,60,58,52,96,83,60,30.12,29.96,25,5,25,0.01
2013-7-30,71,65,60,63,59,57,92,82,67,30.19,30.12,15,6,20,0.01
2013-7-31,76,68,58,62,59,56,96,76,53,30.15,29.94,8,1,9,0.01
2013-8-1,74,69,62,68,64,60,95,85,71,29.94,29.75,29,8,34,0.39
2013-8-2,72,66,61,63,61,58,97,83,62,29.89,29.82,20,3,22,0.03
2013-8-3,72,67,63,62,60,53,94,79,54,29.90,29.78,24,9,25,0.15
2013-8-4,67,64,60,61,58,54,96,82,67,30.01,29.88,28,11,30,0.01
2013-8-5,70,61,52,57,53,49,95,77,54,30.10,30.00,16,4,16,0.01
2013-8-6,74,66,56,63,56,52,92,72,52,30.06,30.01,16,6,16,0.00
2013-8-7,72,69,65,68,64,60,88,84,78,30.04,29.91,28,14,29,0.00
2013-8-8,81,73,69,73,68,65,96,86,72,29.96,29.88,19,5,20,0.02
2013-8-9,73,70,67,70,68,62,96,93,84,29.90,29.80,21,4,22,0.03
2013-8-10,69,65,56,63,58,50,91,78,59,30.08,29.89,23,9,24,0.03
2013-8-11,72,63,55,60,55,51,91,76,57,30.12,30.02,12,3,14,0.00
2013-8-12,74,68,60,65,60,56,90,78,60,30.05,29.86,10,2,14,0.00
2013-8-13,71,66,59,66,62,52,96,86,76,29.86,29.71,27,8,29,0.38
2013-8-14,65,60,55,57,54,50,94,80,66,30.05,29.80,32,13,33,0.04
2013-8-15,70,62,55,59,54,51,91,77,57,30.14,30.05,21,6,21,0.01
2013-8-16,72,63,56,58,54,49,91,75,51,30.21,30.11,13,3,16,0.01
2013-8-17,76,65,55,64,57,52,91,77,56,30.30,30.21,9,2,9,0.00
2013-8-18,77,67,60,65,60,56,92,78,55,30.25,30.10,8,2,9,0.00
2013-8-19,76,69,62,66,61,59,92,78,60,30.10,30.00,9,2,10,0.00
2013-8-20,78,68,60,66,61,58,94,81,57,30.12,30.04,12,2,14,0.00
2013-8-21,80,71,62,70,63,59,93,77,54,30.16,30.00,9,2,9,0.00
2013-8-22,80,72,66,70,66,62,97,82,63,30.02,29.84,31,4,38,0.17
2013-8-23,69,64,57,66,59,55,98,84,65,30.19,29.93,18,4,18,0.01
2013-8-24,72,62,53,58,54,50,97,78,50,30.34,30.18,13,3,14,0.02
2013-8-25,77,67,54,67,58,52,92,74,51,30.35,30.13,14,4,15,0.02
2013-8-26,74,70,65,69,65,62,97,85,74,30.16,29.90,14,6,22,1.09
2013-8-27,80,71,65,72,68,64,98,92,72,29.93,29.85,6,1,7,0.02
2013-8-28,82,72,66,72,69,66,98,90,66,29.90,29.82,13,1,13,0.01
2013-8-29,79,70,63,72,67,62,99,91,71,30.01,29.90,14,3,15,0.01
2013-8-30,80,71,62,71,65,61,97,83,58,30.01,29.76,10,2,12,0.04
2013-8-31,79,74,68,73,70,66,95,87,76,29.82,29.71,21,5,27,0.01
2013-9-1,80,72,67,73,68,65,97,88,69,29.83,29.72,24,1,26,0.87
2013-9-2,80,71,67,73,68,64,96,90,74,29.77,29.61,24,7,25,0.55
2013-9-3,67,64,63,64,59,56,90,83,73,29.90,29.74,24,10,25,0.55
2013-9-4,74,67,60,61,58,54,88,73,52,29.98,29.90,24,10,29,0.00
2013-9-5,68,60,50,63,51,45,93,72,54,30.20,29.92,26,8,26,0.01
2013-9-6,66,56,48,53,47,42,95,74,48,30.28,30.10,10,2,11,0.01
2013-9-7,67,62,58,60,54,48,93,75,58,30.10,29.86,14,5,15,0.22
2013-9-8,64,59,49,63,53,44,97,81,54,30.11,29.82,21,5,27,0.04
2013-9-9,71,60,48,60,51,44,93,74,54,30.18,30.00,23,9,26,0.04
2013-9-10,82,73,66,75,68,59,96,84,76,30.07,29.93,25,11,28,1.10
2013-9-11,86,77,70,74,71,66,90,82,64,30.03,29.89,26,8,28,0.25
2013-9-12,75,70,64,69,66,61,95,88,79,29.89,29.69,20,6,21,0.26
2013-9-13,64,56,49,62,54,48,97,95,92,29.97,29.68,20,6,23,0.33
2013-9-14,57,51,47,50,48,45,100,88,68,30.14,29.96,21,7,22,0.34
2013-9-15,64,57,48,56,50,45,95,78,53,30.17,30.04,23,6,27,0.01
2013-9-16,59,52,43,55,49,39,96,90,77,30.36,30.05,21,5,24,0.01
2013-9-17,63,49,39,49,42,38,96,79,53,30.49,30.32,11,2,11,0.01
2013-9-18,69,60,47,55,48,44,93,66,45,30.32,30.12,14,5,15,0.01
2013-9-19,76,64,56,61,52,47,83,68,46,30.13,30.01,14,4,14,0.00
2013-9-20,76,67,60,63,59,52,89,75,60,30.02,29.82,28,9,31,0.00
2013-9-21,68,64,59,62,60,57,96,87,73,29.82,29.58,34,15,36,1.13
2013-9-22,59,53,50,57,48,44,94,84,72,29.98,29.66,28,14,31,0.03
2013-9-23,54,48,43,46,44,42,95,84,69,30.12,29.98,23,4,23,0.03
2013-9-24,59,50,42,50,45,41,98,85,61,30.12,30.00,19,5,21,0.01
2013-9-25,66,53,45,54,48,43,96,84,60,30.01,29.92,15,3,16,0.02
2013-9-26,66,55,47,55,51,46,97,85,62,30.13,29.99,13,3,15,0.01
2013-9-27,67,56,48,56,52,47,100,87,66,30.26,30.12,12,2,13,0.02
2013-9-28,68,58,49,57,52,47,95,80,59,30.31,30.20,15,4,16,0.01
2013-9-29,68,62,55,56,52,49,83,71,56,30.20,30.02,22,9,24,0.01
2013-9-30,75,63,57,63,54,50,90,74,47,30.03,29.93,12,3,13,0.00
2013-10-1,71,62,56,61,57,53,93,85,63,30.01,29.91,13,1,14,0.00
2013-10-2,72,64,56,63,58,51,90,80,64,30.05,29.91,25,5,25,0.00
2013-10-3,69,60,52,56,52,45,96,79,42,30.13,30.02,7,1,7,0.01
2013-10-4,70,65,60,66,62,54,98,93,83,30.04,29.97,9,1,9,0.58
2013-10-5,64,62,59,62,61,59,98,97,94,30.07,30.01,12,2,13,0.12
2013-10-6,77,68,61,69,65,61,98,90,73,30.02,29.80,30,7,30,0.85
2013-10-7,71,63,54,65,57,45,95,81,59,30.00,29.60,33,14,38,1.38
2013-10-8,61,53,47,50,47,45,95,82,59,30.36,30.00,22,4,23,1.38
2013-10-9,66,53,43,50,45,41,94,77,47,30.42,30.29,10,2,10,0.01
2013-10-10,63,53,44,50,46,42,92,78,60,30.29,30.15,11,2,12,0.01
2013-10-11,66,55,49,53,48,45,94,79,52,30.15,30.09,10,1,10,0.03
2013-10-12,76,58,45,57,48,38,93,73,30,30.23,30.11,19,2,20,0.03
2013-10-13,68,62,55,59,53,50,84,74,63,30.29,30.22,22,9,26,0.00
2013-10-14,64,57,51,54,53,50,97,89,64,30.30,30.25,16,6,18,0.09
2013-10-15,66,58,49,58,53,48,98,85,68,30.28,29.99,18,2,19,0.01
2013-10-16,64,61,58,57,52,46,94,75,60,30.00,29.78,25,14,27,0.26
2013-10-17,62,57,52,56,51,47,96,80,62,29.87,29.63,15,5,16,0.67
2013-10-18,56,54,50,52,47,40,96,78,58,29.91,29.65,30,11,35,0.03
2013-10-19,60,55,48,50,46,42,91,72,55,29.90,29.63,33,14,35,0.34
2013-10-20,52,49,45,45,42,40,86,78,69,29.99,29.72,22,10,26,0.34
2013-10-21,63,56,48,47,44,41,80,63,46,30.01,29.79,29,16,30,0.00
2013-10-22,57,49,44,48,40,33,89,70,55,29.84,29.72,29,12,31,0.09
2013-10-23,47,44,39,41,37,34,93,80,64,29.82,29.64,26,7,29,0.07
2013-10-24,47,42,38,39,36,30,93,79,54,29.97,29.76,31,14,32,0.02
2013-10-25,46,42,39,40,38,35,94,85,71,30.17,29.97,28,11,32,0.01
2013-10-26,48,44,42,38,35,30,84,70,54,30.14,29.81,35,16,37,0.03
2013-10-27,47,44,41,39,37,34,89,76,63,30.07,29.80,24,11,24,0.03
2013-10-28,48,43,32,42,35,26,85,74,56,30.37,30.04,27,9,28,0.00
2013-10-29,45,36,28,33,26,22,89,66,45,30.48,30.31,10,3,11,0.00
2013-10-30,56,46,40,42,38,29,92,76,56,30.31,30.13,11,2,11,0.01
2013-10-31,60,56,43,57,52,39,93,87,73,30.13,29.49,37,17,38,1.03
2013-11-1,63,59,53,58,50,42,91,73,51,29.66,29.23,38,19,42,0.14
2013-11-2,53,47,36,46,43,33,94,86,71,29.93,29.61,21,6,21,0.16
2013-11-3,36,33,28,33,26,22,89,77,62,30.54,29.93,22,3,24,0.16
2013-11-4,42,35,27,27,22,17,86,61,37,30.67,30.51,26,4,26,0.01
2013-11-5,53,46,39,42,34,23,75,63,52,30.53,30.35,34,18,36,0.01
2013-11-6,58,54,48,51,46,41,84,77,71,30.37,29.83,38,20,41,0.03
2013-11-7,57,46,38,52,41,32,94,84,73,29.95,29.76,31,15,33,0.39
2013-11-8,40,38,35,35,33,30,95,81,68,30.20,29.92,36,15,37,0.03
2013-11-9,48,42,38,37,33,29,82,69,53,30.21,29.80,30,14,30,0.01
2013-11-10,49,44,36,42,37,34,95,77,58,30.10,29.77,42,18,47,0.19
2013-11-11,46,40,32,38,34,31,94,80,61,30.15,29.93,33,14,34,0.03
2013-11-12,33,29,26,31,26,22,95,87,73,30.34,30.05,29,16,31,0.03
2013-11-13,36,30,23,28,23,18,90,74,61,30.42,30.11,27,12,27,0.00
2013-11-14,50,42,35,31,24,19,64,48,33,30.14,30.03,24,12,27,0.00
2013-11-15,54,47,41,37,28,22,56,46,36,30.14,30.06,19,9,21,0.00
2013-11-16,58,51,45,43,37,26,75,60,39,30.26,30.10,22,9,24,0.00
2013-11-17,58,54,50,54,49,42,90,85,72,30.11,29.41,46,20,46,0.35
2013-11-18,58,49,38,54,39,29,92,70,56,29.84,29.38,42,20,42,0.03
2013-11-19,38,35,29,33,30,21,93,80,71,30.43,29.84,36,17,36,0.01
2013-11-20,38,30,21,24,20,16,88,67,44,30.60,30.42,16,3,16,0.01
2013-11-21,44,39,34,38,28,15,81,64,44,30.54,30.28,29,15,32,0.00
2013-11-22,48,43,36,46,41,31,95,92,82,30.29,29.94,39,11,41,0.18
2013-11-23,37,30,20,32,26,15,95,84,61,30.13,29.92,45,20,45,0.18
2013-11-24,24,20,18,20,18,16,100,92,81,30.38,30.07,35,18,37,0.00
2013-11-25,34,27,20,24,20,16,94,75,50,30.40,30.15,32,15,32,0.00
2013-11-26,38,34,30,37,30,18,95,86,53,30.19,29.79,25,11,26,0.74
2013-11-27,35,32,24,34,30,21,97,94,82,29.81,29.53,37,16,40,0.08
2013-11-28,26,24,21,23,20,17,94,85,71,30.43,29.81,34,12,35,0.08
2013-11-29,28,24,14,23,20,11,94,85,65,30.75,30.43,24,7,27,0.00
2013-11-30,34,25,13,27,18,10,92,74,56,30.75,30.25,36,14,40,0.06
2013-12-1,40,35,33,34,29,25,93,79,66,30.25,29.97,25,11,27,0.04
2013-12-2,41,38,36,35,34,33,91,86,78,29.98,29.85,12,5,13,0.04
2013-12-3,40,34,29,34,30,26,93,85,64,30.01,29.87,12,3,13,0.00
2013-12-4,50,41,31,43,37,28,95,84,70,30.07,29.97,20,5,23,0.01
2013-12-5,54,50,40,52,46,38,94,88,75,29.98,29.78,33,15,33,0.11
2013-12-6,40,34,30,38,31,27,100,87,78,30.23,29.96,20,10,23,0.02
2013-12-7,31,29,25,48,23,17,93,77,63,30.53,30.21,25,14,27,0.02
2013-12-8,29,26,22,48,23,15,87,58,62,30.58,30.28,20,5,20,0.00
2013-12-9,40,35,26,38,31,22,92,84,71,30.28,29.86,42,17,42,0.04
2013-12-10,35,28,23,27,21,14,90,76,69,30.05,29.89,31,14,35,0.04
2013-12-11,25,23,19,22,18,13,93,82,68,30.24,30.05,28,13,31,0.00
2013-12-12,22,18,15,16,14,12,93,83,71,30.32,30.04,27,12,27,0.00
2013-12-13,25,20,12,22,17,9,93,87,78,30.39,30.02,30,12,31,0.00
2013-12-14,27,16,9,24,13,3,93,86,74,30.47,29.78,27,7,30,0.00
2013-12-15,29,24,18,26,21,14,100,90,70,29.82,29.61,27,10,29,0.00
2013-12-16,23,16,5,29,15,4,92,77,69,30.20,29.82,32,10,33,0.00
2013-12-17,29,21,6,25,18,4,92,88,82,30.18,29.93,29,9,29,0.00
2013-12-18,31,29,26,27,25,23,93,86,76,30.08,29.93,28,10,28,0.02
2013-12-19,41,36,30,33,27,21,84,72,62,30.06,29.93,27,10,27,0.09
2013-12-20,48,45,38,45,39,32,94,81,64,30.00,29.79,21,12,23,0.20
2013-12-21,54,47,33,51,45,32,97,93,86,29.84,29.77,26,9,28,0.78
2013-12-22,60,42,32,53,40,32,99,93,64,29.98,29.55,40,8,42,0.06
2013-12-23,42,37,28,40,34,26,98,90,72,30.23,29.96,28,9,32,0.04
2013-12-24,28,22,14,27,19,12,93,90,83,30.45,30.17,31,8,31,0.04
2013-12-25,27,16,6,34,16,6,100,64,67,30.54,30.27,29,8,30,0.00
2013-12-26,32,28,23,29,23,18,94,83,71,30.28,30.07,27,16,30,0.00
2013-12-27,34,29,24,29,25,18,89,84,75,30.28,30.14,24,10,24,0.00
2013-12-28,44,39,33,35,31,28,96,74,63,30.13,29.95,23,9,24,0.01
2013-12-29,45,40,36,38,34,29,100,78,56,29.95,29.62,25,9,27,0.46
2013-12-30,38,21,16,34,18,10,94,86,75,30.20,29.68,36,16,36,0.46
2013-12-31,25,19,15,22,14,8,92,80,69,30.24,29.96,39,15,39,0.00
2014-1-1,22,18,13,15,12,9,95,77,61,30.39,30.24,23,9,25,0.00
2014-1-2,14,10,-1,100,10,-3,89,88,86,30.29,29.93,15,4,18,0.00